Terminal Aerodrome Forecast
Issued by NWS Sioux Falls, SD

Home | Current Version | Previous Version | Text Only | Print | Product List | Glossary On
Versions: 1 2 3 4 5 6 7 8 9 10 11 12 13 14
000
FTUS43 KFSD 270305 AAA
TAFSUX
TAF AMD
KSUX 270305Z 2703/2724 09006KT P6SM OVC025
     FM270700 10004KT P6SM VCSH OVC015
      TEMPO 2707/2709 5SM BR
     FM270900 VRB03KT 3SM BR VCSH OVC008
     FM271200 VRB03KT 2SM BR OVC005
     FM271400 14005KT 4SM BR OVC006
     FM271600 16006KT P6SM BKN025
     FM271800 18011KT P6SM SCT150=

USA.gov is the U.S. government's official web portal to all federal, state and local government web resources and services.